Darstellungsparameter: Aktuell verwendete Einstellungen:
Skalierung der Graphiken ... ?
xyx+y,   Skalierungsfaktor:      Skalierung: Modus: x, Faktor: 1
Darstellungszeitraum ... ?
Vom - - bis: - -   Zeitraum: 08.05.2021 - 08.05.2021
Min/Max/Avg-Anzeige ... ?
Zeige MMA aktuell
Zeige MMA Monat
Zeige MMA alles
Zeige --A aktuell
Zeige --A Monat
Zeige --A alles
Keine MMA-Anzeige
MMA:
Average (ber die Originaldaten)
MMA-Basis: 11.04.2020 - 13.05.2020
Quicknavigation für Darstellung... ?
Tage:      1T, 2T, 3T, 5T -1T -2T -3T -5T +1T +2T +3T +5T
Wochen: 1W, 2W, 3W -1W -2W -3W +1W +2W +3W
Monate: 1M, 3M, 6M -1M -3M -6M +1M +3M +6M
Jahre:    1J, 3J, 5J, 10J -1J -3J -5J -10J +1J +3J +5J +10J
Nutze für die Darstellung ... ?
Originaldaten oder Mittelwerte auf ...
Stundenbasis Tagesbasis Wochenbasis
Monatsbasis Jahresbasis      Datenbasis: Original-Daten
Darstellen als:
Statistik (Auto) Statistik J:M      Darstellung:

Der gewünschte Datumsbereich war nicht gültig/verfügbar und wurde korrigiert....
Das angegebene Enddatum (12.05.2025 23:59:59) liegt in der Zukunft.
Das angegebene Startdatum (22.04.2025 00:00:00) liegt in der Zukunft.


Zur Graphik,    zurück zur Übersicht aller Sensoren.
 
Tabellarische Datenbersicht: ?
 
Sensor: Nr:Datum:Temp:Abs-Feuchte:Windchill:Wind:
Aussen-T/F 1 08-05-2021 02:00:00 3.2 C 5.42 g/m*3 3.2 C 0 km/h
2 08-05-2021 02:05:00 3.1 C 5.39 g/m*3 3.1 C 0 km/h
3 08-05-2021 02:10:00 3 C 5.29 g/m*3 3 C 0 km/h
4 08-05-2021 02:15:00 2.9 C 5.32 g/m*3 2.9 C 0 km/h
5 08-05-2021 02:20:00 2.8 C 5.28 g/m*3 2.8 C 0 km/h
6 08-05-2021 02:25:00 2.7 C 5.24 g/m*3 2.7 C 0 km/h
7 08-05-2021 02:30:00 2.7 C 5.24 g/m*3 2.7 C 0 km/h
8 08-05-2021 02:35:00 2.7 C 5.3 g/m*3 2.7 C 3.2 km/h
9 08-05-2021 02:40:00 2.8 C 5.28 g/m*3 2.8 C 0 km/h
10 08-05-2021 02:45:00 2.7 C 5.24 g/m*3 2.7 C 0 km/h
11 08-05-2021 02:50:00 2.6 C 5.21 g/m*3 2.6 C 0 km/h
12 08-05-2021 02:55:00 2.4 C 5.14 g/m*3 2.4 C 0 km/h
13 08-05-2021 03:00:00 2.3 C 5.1 g/m*3 2.3 C 0 km/h
14 08-05-2021 03:05:00 2.3 C 5.1 g/m*3 2.3 C 1.6 km/h
15 08-05-2021 03:10:00 2.2 C 5.07 g/m*3 2.2 C 0 km/h
16 08-05-2021 03:15:00 2.1 C 5.04 g/m*3 2.1 C 0 km/h
17 08-05-2021 03:20:00 2.1 C 5.09 g/m*3 2.1 C 0 km/h
18 08-05-2021 03:25:00 1.9 C 5.02 g/m*3 1.9 C 0 km/h
19 08-05-2021 03:30:00 1.9 C 5.02 g/m*3 1.9 C 0 km/h
20 08-05-2021 03:35:00 1.8 C 4.99 g/m*3 1.8 C 0 km/h
21 08-05-2021 03:40:00 1.8 C 4.99 g/m*3 1.8 C 0 km/h
22 08-05-2021 03:45:00 1.7 C 4.95 g/m*3 1.7 C 0 km/h
23 08-05-2021 03:50:00 1.7 C 4.95 g/m*3 1.7 C 0 km/h
24 08-05-2021 03:55:00 1.6 C 4.92 g/m*3 1.6 C 0 km/h
25 08-05-2021 04:00:00 1.6 C 4.97 g/m*3 1.6 C 0 km/h
Sensor: Nr:Datum:Temp:Abs-Feuchte:Windchill:Wind:
Aussen-T/F 26 08-05-2021 04:05:00 1.6 C 4.97 g/m*3 1.6 C 0 km/h
27 08-05-2021 04:10:00 1.6 C 4.97 g/m*3 1.6 C 0 km/h
28 08-05-2021 04:15:00 1.5 C 4.94 g/m*3 1.5 C 0 km/h
29 08-05-2021 04:20:00 1.4 C 4.91 g/m*3 1.4 C 0 km/h
30 08-05-2021 04:25:00 1.4 C 4.91 g/m*3 1.4 C 0 km/h
31 08-05-2021 04:30:00 1.3 C 4.87 g/m*3 1.3 C 0 km/h
32 08-05-2021 04:35:00 1.3 C 4.87 g/m*3 1.3 C 0 km/h
33 08-05-2021 04:40:00 1.3 C 4.87 g/m*3 1.3 C 0 km/h
34 08-05-2021 04:45:00 1.3 C 4.87 g/m*3 1.3 C 0 km/h
35 08-05-2021 04:50:00 1.3 C 4.93 g/m*3 1.3 C 0 km/h
36 08-05-2021 04:55:00 1.3 C 4.93 g/m*3 1.3 C 0 km/h
37 08-05-2021 05:00:00 1.2 C 4.84 g/m*3 1.2 C 0 km/h
38 08-05-2021 05:05:00 1.2 C 4.84 g/m*3 1.2 C 0 km/h
39 08-05-2021 05:10:00 1.2 C 4.89 g/m*3 1.2 C 0 km/h
40 08-05-2021 05:15:00 1.1 C 4.86 g/m*3 1.1 C 0 km/h
41 08-05-2021 05:20:00 1.1 C 4.86 g/m*3 1.1 C 0 km/h
42 08-05-2021 05:25:00 1 C 4.83 g/m*3 1 C 0 km/h
43 08-05-2021 05:30:00 1 C 4.83 g/m*3 1 C 0 km/h
44 08-05-2021 05:35:00 1 C 4.83 g/m*3 1 C 0 km/h
45 08-05-2021 05:40:00 0.9 C 4.79 g/m*3 0.9 C 0 km/h
46 08-05-2021 05:45:00 0.9 C 4.79 g/m*3 0.9 C 0 km/h
47 08-05-2021 05:50:00 0.8 C 4.76 g/m*3 0.8 C 0 km/h
48 08-05-2021 05:55:00 0.8 C 4.76 g/m*3 0.8 C 0 km/h
49 08-05-2021 06:00:00 0.8 C 4.76 g/m*3 0.8 C 0 km/h
50 08-05-2021 06:05:00 0.8 C 4.76 g/m*3 0.8 C 0 km/h
Sensor: Nr:Datum:Temp:Abs-Feuchte:Windchill:Wind:
Aussen-T/F 51 08-05-2021 06:10:00 0.7 C 4.73 g/m*3 0.7 C 0 km/h
52 08-05-2021 06:15:00 0.7 C 4.73 g/m*3 0.7 C 0 km/h
53 08-05-2021 06:20:00 0.7 C 4.73 g/m*3 0.7 C 0 km/h
54 08-05-2021 06:25:00 0.7 C 4.73 g/m*3 0.7 C 0 km/h
55 08-05-2021 06:30:00 0.7 C 4.73 g/m*3 0.7 C 0 km/h
56 08-05-2021 06:35:00 0.7 C 4.78 g/m*3 0.7 C 0 km/h
57 08-05-2021 06:40:00 0.7 C 4.78 g/m*3 0.7 C 0 km/h
58 08-05-2021 06:45:00 0.8 C 4.81 g/m*3 0.8 C 0 km/h
59 08-05-2021 06:50:00 0.8 C 4.81 g/m*3 0.8 C 0 km/h
60 08-05-2021 06:55:00 0.9 C 4.85 g/m*3 0.9 C 0 km/h
61 08-05-2021 07:00:00 1 C 4.88 g/m*3 1 C 0 km/h
62 08-05-2021 07:05:00 1.2 C 4.95 g/m*3 1.2 C 0 km/h
63 08-05-2021 07:10:00 1.2 C 5 g/m*3 1.2 C 0 km/h
64 08-05-2021 07:15:00 1.2 C 4.95 g/m*3 1.2 C 0 km/h
65 08-05-2021 07:20:00 1.3 C 4.98 g/m*3 1.3 C 0 km/h
66 08-05-2021 07:25:00 1.3 C 4.98 g/m*3 1.3 C 0 km/h
67 08-05-2021 07:30:00 1.3 C 4.98 g/m*3 1.3 C 0 km/h
68 08-05-2021 07:35:00 1.4 C 5.01 g/m*3 1.4 C 0 km/h
69 08-05-2021 07:40:00 1.4 C 5.01 g/m*3 1.4 C 0 km/h
70 08-05-2021 07:45:00 1.6 C 5.14 g/m*3 1.6 C 0 km/h
71 08-05-2021 07:50:00 1.7 C 5.17 g/m*3 1.7 C 0 km/h
72 08-05-2021 07:55:00 1.9 C 5.24 g/m*3 1.9 C 0 km/h
73 08-05-2021 08:00:00 2.1 C 5.31 g/m*3 2.1 C 0 km/h
74 08-05-2021 08:05:00 2.2 C 5.35 g/m*3 2.2 C 0 km/h
75 08-05-2021 08:10:00 2.4 C 5.42 g/m*3 2.4 C 0 km/h
Sensor: Nr:Datum:Temp:Abs-Feuchte:Windchill:Wind:
Aussen-T/F 76 08-05-2021 08:15:00 2.6 C 5.5 g/m*3 2.6 C 0 km/h
77 08-05-2021 08:20:00 2.8 C 5.57 g/m*3 2.8 C 1.6 km/h
78 08-05-2021 08:25:00 2.9 C 5.67 g/m*3 2.9 C 0 km/h
79 08-05-2021 08:30:00 3.1 C 5.69 g/m*3 3.1 C 0 km/h
80 08-05-2021 08:35:00 3.3 C 5.82 g/m*3 3.3 C 0 km/h
81 08-05-2021 08:40:00 3.6 C 5.94 g/m*3 3.6 C 0 km/h
82 08-05-2021 08:45:00 3.8 C 6.02 g/m*3 3.8 C 0 km/h
83 08-05-2021 08:50:00 4 C 6.1 g/m*3 4 C 0 km/h
84 08-05-2021 08:55:00 4.2 C 6.19 g/m*3 4.2 C 0 km/h
85 08-05-2021 09:00:00 4.4 C 6.27 g/m*3 4.4 C 0 km/h
86 08-05-2021 09:05:00 4.7 C 6.33 g/m*3 4.7 C 0 km/h
87 08-05-2021 09:10:00 4.9 C 6.41 g/m*3 4.9 C 0 km/h
88 08-05-2021 09:15:00 5.2 C 6.54 g/m*3 5.2 C 0 km/h
89 08-05-2021 09:20:00 5.4 C 6.63 g/m*3 5.4 C 0 km/h
90 08-05-2021 09:25:00 5.7 C 6.69 g/m*3 5.7 C 0 km/h
91 08-05-2021 09:30:00 6.1 C 6.79 g/m*3 6.1 C 0 km/h
92 08-05-2021 09:35:00 6.4 C 6.78 g/m*3 6.4 C 0 km/h
93 08-05-2021 09:40:00 6.7 C 6.76 g/m*3 6.7 C 0 km/h
94 08-05-2021 09:45:00 7 C 6.74 g/m*3 7 C 0 km/h
95 08-05-2021 09:50:00 7.3 C 6.72 g/m*3 7.3 C 0 km/h
96 08-05-2021 09:55:00 7.7 C 6.81 g/m*3 7.7 C 0 km/h
97 08-05-2021 10:00:00 8 C 6.7 g/m*3 8 C 0 km/h
98 08-05-2021 10:05:00 8.3 C 6.74 g/m*3 8.3 C 0 km/h
99 08-05-2021 10:10:00 8.6 C 6.79 g/m*3 8.6 C 0 km/h
100 08-05-2021 10:15:00 8.8 C 6.7 g/m*3 8.8 C 0 km/h
Sensor: Nr:Datum:Temp:Abs-Feuchte:Windchill:Wind:
Aussen-T/F 101 08-05-2021 10:20:00 9.1 C 6.92 g/m*3 9.1 C 0 km/h
102 08-05-2021 10:25:00 9.3 C 6.83 g/m*3 9.3 C 0 km/h
103 08-05-2021 10:30:00 9.6 C 6.87 g/m*3 9.6 C 4.8 km/h
104 08-05-2021 10:35:00 9.8 C 6.96 g/m*3 9.8 C 4.8 km/h
105 08-05-2021 10:40:00 9.9 C 6.91 g/m*3 9.9 C 0 km/h
106 08-05-2021 10:45:00 10.2 C 7.04 g/m*3 10.2 C 0 km/h
107 08-05-2021 10:50:00 10.4 C 7.04 g/m*3 10.4 C 4.8 km/h
108 08-05-2021 10:55:00 10.8 C 7.22 g/m*3 9.93 C 8.1 km/h
109 08-05-2021 11:00:00 11.3 C 7.14 g/m*3 11.3 C 6.4 km/h
110 08-05-2021 11:05:00 11.6 C 7.17 g/m*3 11.6 C 3.2 km/h
111 08-05-2021 11:10:00 11.9 C 6.99 g/m*3 11.9 C 6.4 km/h
112 08-05-2021 11:15:00 12.3 C 6.62 g/m*3 12.3 C 4.8 km/h
113 08-05-2021 11:20:00 12.7 C 6.46 g/m*3 12.7 C 4.8 km/h
114 08-05-2021 11:25:00 13.2 C 6.54 g/m*3 13.2 C 4.8 km/h
115 08-05-2021 11:30:00 13.7 C 6.51 g/m*3 13.7 C 11.3 km/h
116 08-05-2021 11:35:00 13.8 C 6.08 g/m*3 13.8 C 12.9 km/h
117 08-05-2021 11:40:00 14 C 6.15 g/m*3 14 C 8.1 km/h
118 08-05-2021 11:45:00 14.2 C 6.47 g/m*3 14.2 C 3.2 km/h
119 08-05-2021 11:50:00 14.4 C 6.43 g/m*3 14.4 C 6.4 km/h
120 08-05-2021 11:55:00 14.6 C 6.38 g/m*3 14.6 C 8.1 km/h
121 08-05-2021 12:00:00 14.6 C 6.13 g/m*3 14.6 C 6.4 km/h
122 08-05-2021 12:05:00 14.7 C 6.67 g/m*3 14.7 C 4.8 km/h
123 08-05-2021 12:10:00 14.8 C 6.46 g/m*3 14.8 C 11.3 km/h
124 08-05-2021 12:15:00 14.9 C 5.86 g/m*3 14.9 C 12.9 km/h
125 08-05-2021 12:20:00 15.1 C 6.19 g/m*3 15.1 C 14.5 km/h
Sensor: Nr:Datum:Temp:Abs-Feuchte:Windchill:Wind:
Aussen-T/F 126 08-05-2021 12:25:00 15.1 C 6.06 g/m*3 15.1 C 11.3 km/h
127 08-05-2021 12:30:00 15.2 C 5.97 g/m*3 15.2 C 11.3 km/h
128 08-05-2021 12:35:00 15.4 C 6.04 g/m*3 15.4 C 8.1 km/h
129 08-05-2021 12:40:00 15.5 C 6.08 g/m*3 15.5 C 9.7 km/h
130 08-05-2021 12:45:00 15.6 C 5.72 g/m*3 15.6 C 11.3 km/h
131 08-05-2021 12:50:00 15.7 C 6.15 g/m*3 15.7 C 8.1 km/h
132 08-05-2021 12:55:00 15.8 C 6.19 g/m*3 15.8 C 6.4 km/h
133 08-05-2021 13:00:00 15.9 C 5.96 g/m*3 15.9 C 11.3 km/h
134 08-05-2021 13:05:00 16.1 C 6.58 g/m*3 16.1 C 9.7 km/h
135 08-05-2021 13:10:00 15.9 C 6.09 g/m*3 15.9 C 14.5 km/h
136 08-05-2021 13:15:00 15.9 C 6.23 g/m*3 15.9 C 11.3 km/h
137 08-05-2021 13:20:00 15.8 C 5.92 g/m*3 15.8 C 11.3 km/h
138 08-05-2021 13:25:00 15.9 C 5.96 g/m*3 15.9 C 9.7 km/h
139 08-05-2021 13:30:00 16 C 6.27 g/m*3 16 C 8.1 km/h
140 08-05-2021 13:35:00 16.2 C 6.21 g/m*3 16.2 C 9.7 km/h
141 08-05-2021 13:40:00 16.2 C 6.07 g/m*3 16.2 C 12.9 km/h
142 08-05-2021 13:45:00 16.2 C 6.21 g/m*3 16.2 C 8.1 km/h
143 08-05-2021 13:50:00 16.3 C 6.38 g/m*3 16.3 C 4.8 km/h
144 08-05-2021 13:55:00 16.4 C 6.14 g/m*3 16.4 C 11.3 km/h
145 08-05-2021 14:00:00 16.4 C 6.42 g/m*3 16.4 C 12.9 km/h
146 08-05-2021 14:05:00 16.6 C 6.36 g/m*3 16.6 C 9.7 km/h
147 08-05-2021 14:10:00 16.7 C 6.4 g/m*3 16.7 C 14.5 km/h
148 08-05-2021 14:15:00 16.8 C 6.43 g/m*3 16.8 C 17.7 km/h
149 08-05-2021 14:20:00 16.7 C 6.68 g/m*3 16.7 C 17.7 km/h
150 08-05-2021 14:25:00 16.8 C 6.58 g/m*3 16.8 C 6.4 km/h
Sensor: Nr:Datum:Temp:Abs-Feuchte:Windchill:Wind:
Aussen-T/F 151 08-05-2021 14:30:00 16.8 C 6.72 g/m*3 16.8 C 11.3 km/h
152 08-05-2021 14:35:00 16.9 C 6.62 g/m*3 16.9 C 19.3 km/h
153 08-05-2021 14:40:00 16.9 C 6.62 g/m*3 16.9 C 14.5 km/h
154 08-05-2021 14:45:00 16.9 C 6.47 g/m*3 16.9 C 19.3 km/h
155 08-05-2021 14:50:00 17.1 C 6.7 g/m*3 17.1 C 11.3 km/h
156 08-05-2021 14:55:00 17.1 C 6.55 g/m*3 17.1 C 11.3 km/h
157 08-05-2021 15:00:00 17.1 C 6.7 g/m*3 17.1 C 14.5 km/h
158 08-05-2021 15:05:00 17.1 C 6.84 g/m*3 17.1 C 6.4 km/h
159 08-05-2021 15:10:00 17.2 C 6.74 g/m*3 17.2 C 8.1 km/h
160 08-05-2021 15:15:00 17.2 C 6.88 g/m*3 17.2 C 9.7 km/h
161 08-05-2021 15:20:00 17.1 C 6.99 g/m*3 17.1 C 6.4 km/h
162 08-05-2021 15:25:00 16.9 C 6.76 g/m*3 16.9 C 16.1 km/h
163 08-05-2021 15:30:00 16.8 C 7.01 g/m*3 16.8 C 14.5 km/h
164 08-05-2021 15:35:00 16.7 C 6.82 g/m*3 16.7 C 14.5 km/h
165 08-05-2021 15:40:00 16.8 C 7.01 g/m*3 16.8 C 11.3 km/h
166 08-05-2021 15:45:00 16.9 C 6.76 g/m*3 16.9 C 9.7 km/h
167 08-05-2021 15:50:00 17 C 7.09 g/m*3 17 C 8.1 km/h
168 08-05-2021 15:55:00 17 C 6.95 g/m*3 17 C 6.4 km/h
169 08-05-2021 16:00:00 17.1 C 6.99 g/m*3 17.1 C 6.4 km/h
170 08-05-2021 16:05:00 16.9 C 6.76 g/m*3 16.9 C 8.1 km/h
171 08-05-2021 16:10:00 16.9 C 7.05 g/m*3 16.9 C 1.6 km/h
172 08-05-2021 16:15:00 16.9 C 7.05 g/m*3 16.9 C 8.1 km/h
173 08-05-2021 16:20:00 16.8 C 7.15 g/m*3 16.8 C 1.6 km/h
174 08-05-2021 16:25:00 16.8 C 7.01 g/m*3 16.8 C 8.1 km/h
175 08-05-2021 16:30:00 16.8 C 7.29 g/m*3 16.8 C 4.8 km/h
Sensor: Nr:Datum:Temp:Abs-Feuchte:Windchill:Wind:
Aussen-T/F 176 08-05-2021 16:35:00 16.8 C 7.29 g/m*3 16.8 C 6.4 km/h
177 08-05-2021 16:40:00 16.9 C 7.34 g/m*3 16.9 C 3.2 km/h
178 08-05-2021 16:45:00 17 C 7.09 g/m*3 17 C 6.4 km/h

Legende:
   Min
   Max


Maximal/Minimal-Werte vom 11.04.2020 - 13.05.2020

Sensor Min Max Avg
Temp
(Aussen-T/F)
-0.1 °C
15-04-2020  06:55:00
26.2 °C
17-04-2020  18:05:00
12.26 °C

Die Daten stammen von einer Davis Vantage Pro 2 Wetter-Station und werden unter Linux mit der Software wview2wettercgi und aufbereitet. Alle Angaben erfolgen ohne Gewähr für ihre Vollständigkeit oder Richtigkeit.
Kontakt: Rainer Krienke krienke@uni-koblenz.de . Meine Webseiten an der Uni Koblenz oder privat.
Version: $Revision: 0.78 $